sensor_id;sensor_type;location;lat;lon;timestamp;pressure;altitude;pressure_sealevel;temperature;humidity
7297;BME280;40758;54.038;11.684;2024-02-23T00:00:00;97735.72;;;9.78;100.00
7297;BME280;40758;54.038;11.684;2024-02-23T00:02:26;97733.41;;;9.90;100.00
7297;BME280;40758;54.038;11.684;2024-02-23T00:04:53;97741.72;;;9.99;100.00
7297;BME280;40758;54.038;11.684;2024-02-23T00:07:20;97747.66;;;10.01;100.00
7297;BME280;40758;54.038;11.684;2024-02-23T00:09:47;97743.31;;;10.00;100.00
7297;BME280;40758;54.038;11.684;2024-02-23T00:12:13;97749.56;;;10.00;100.00
7297;BME280;40758;54.038;11.684;2024-02-23T00:14:41;97744.94;;;10.01;100.00
7297;BME280;40758;54.038;11.684;2024-02-23T00:17:08;97773.66;;;10.02;100.00
7297;BME280;40758;54.038;11.684;2024-02-23T00:19:35;97772.84;;;10.01;100.00
7297;BME280;40758;54.038;11.684;2024-02-23T00:22:02;97770.88;;;10.07;100.00
7297;BME280;40758;54.038;11.684;2024-02-23T00:24:34;97797.19;;;10.06;100.00
7297;BME280;40758;54.038;11.684;2024-02-23T00:27:02;97786.34;;;10.06;100.00
7297;BME280;40758;54.038;11.684;2024-02-23T00:29:29;97797.78;;;10.03;100.00
7297;BME280;40758;54.038;11.684;2024-02-23T00:31:56;97792.34;;;10.03;100.00
7297;BME280;40758;54.038;11.684;2024-02-23T00:34:24;97790.56;;;9.94;100.00
7297;BME280;40758;54.038;11.684;2024-02-23T00:36:51;97786.00;;;9.89;100.00
7297;BME280;40758;54.038;11.684;2024-02-23T00:39:17;97822.09;;;9.84;100.00
7297;BME280;40758;54.038;11.684;2024-02-23T00:41:44;97806.41;;;9.81;100.00
7297;BME280;40758;54.038;11.684;2024-02-23T00:44:11;97828.16;;;9.76;100.00
7297;BME280;40758;54.038;11.684;2024-02-23T00:46:38;97833.66;;;9.66;100.00
7297;BME280;40758;54.038;11.684;2024-02-23T00:49:05;97852.16;;;9.59;100.00
7297;BME280;40758;54.038;11.684;2024-02-23T00:51:32;97846.53;;;9.50;100.00
7297;BME280;40758;54.038;11.684;2024-02-23T00:54:02;97850.72;;;9.38;100.00
7297;BME280;40758;54.038;11.684;2024-02-23T00:56:30;97829.78;;;9.14;100.00
7297;BME280;40758;54.038;11.684;2024-02-23T00:59:16;97843.47;;;8.94;100.00
7297;BME280;40758;54.038;11.684;2024-02-23T01:01:43;97849.22;;;8.87;100.00
7297;BME280;40758;54.038;11.684;2024-02-23T01:04:12;97852.47;;;8.84;100.00
7297;BME280;40758;54.038;11.684;2024-02-23T01:06:39;97856.56;;;8.76;100.00
7297;BME280;40758;54.038;11.684;2024-02-23T01:09:05;97859.31;;;8.71;100.00
7297;BME280;40758;54.038;11.684;2024-02-23T01:11:34;97899.88;;;8.71;100.00
7297;BME280;40758;54.038;11.684;2024-02-23T01:14:01;97884.22;;;8.63;100.00
7297;BME280;40758;54.038;11.684;2024-02-23T01:16:28;97889.69;;;8.58;100.00
7297;BME280;40758;54.038;11.684;2024-02-23T01:18:54;97879.16;;;8.46;100.00
7297;BME280;40758;54.038;11.684;2024-02-23T01:21:24;97930.81;;;8.35;100.00
7297;BME280;40758;54.038;11.684;2024-02-23T01:23:51;97894.13;;;8.18;100.00
7297;BME280;40758;54.038;11.684;2024-02-23T01:26:18;97905.47;;;8.00;100.00
7297;BME280;40758;54.038;11.684;2024-02-23T01:28:45;97919.03;;;7.90;100.00
7297;BME280;40758;54.038;11.684;2024-02-23T01:31:13;97918.50;;;7.83;100.00
7297;BME280;40758;54.038;11.684;2024-02-23T01:33:41;97903.91;;;7.68;100.00
7297;BME280;40758;54.038;11.684;2024-02-23T01:36:08;97921.47;;;7.71;100.00
7297;BME280;40758;54.038;11.684;2024-02-23T01:38:36;97926.88;;;7.71;100.00
7297;BME280;40758;54.038;11.684;2024-02-23T01:41:03;97916.91;;;7.61;100.00
7297;BME280;40758;54.038;11.684;2024-02-23T01:43:30;97948.47;;;7.51;100.00
7297;BME280;40758;54.038;11.684;2024-02-23T01:45:58;97959.81;;;7.47;100.00
7297;BME280;40758;54.038;11.684;2024-02-23T01:48:26;97995.16;;;7.36;100.00
7297;BME280;40758;54.038;11.684;2024-02-23T01:50:54;97942.25;;;7.30;100.00
7297;BME280;40758;54.038;11.684;2024-02-23T01:53:24;97961.13;;;7.25;100.00
7297;BME280;40758;54.038;11.684;2024-02-23T01:55:57;97955.72;;;7.25;100.00
7297;BME280;40758;54.038;11.684;2024-02-23T01:58:24;97980.03;;;7.19;100.00
7297;BME280;40758;54.038;11.684;2024-02-23T02:00:52;97976.78;;;7.17;100.00
7297;BME280;40758;54.038;11.684;2024-02-23T02:03:18;98005.91;;;7.15;100.00
7297;BME280;40758;54.038;11.684;2024-02-23T02:05:47;98012.94;;;7.16;100.00
7297;BME280;40758;54.038;11.684;2024-02-23T02:08:17;98025.91;;;7.19;100.00
7297;BME280;40758;54.038;11.684;2024-02-23T02:10:43;98029.16;;;7.27;100.00
7297;BME280;40758;54.038;11.684;2024-02-23T02:13:12;98035.41;;;7.37;100.00
7297;BME280;40758;54.038;11.684;2024-02-23T02:15:41;98031.13;;;7.62;100.00
7297;BME280;40758;54.038;11.684;2024-02-23T02:18:11;98049.25;;;7.66;100.00
7297;BME280;40758;54.038;11.684;2024-02-23T02:20:40;98100.66;;;7.14;100.00
7297;BME280;40758;54.038;11.684;2024-02-23T02:23:12;98135.06;;;6.54;100.00
7297;BME280;40758;54.038;11.684;2024-02-23T02:25:39;98157.91;;;6.14;100.00
7297;BME280;40758;54.038;11.684;2024-02-23T02:28:06;98159.78;;;5.87;100.00
7297;BME280;40758;54.038;11.684;2024-02-23T02:30:34;98163.84;;;5.68;100.00
7297;BME280;40758;54.038;11.684;2024-02-23T02:33:02;98165.38;;;5.58;100.00
7297;BME280;40758;54.038;11.684;2024-02-23T02:35:28;98179.34;;;5.55;100.00
7297;BME280;40758;54.038;11.684;2024-02-23T02:37:56;98183.63;;;5.51;100.00
7297;BME280;40758;54.038;11.684;2024-02-23T02:40:23;98178.72;;;5.48;100.00
7297;BME280;40758;54.038;11.684;2024-02-23T02:42:50;98195.63;;;5.44;100.00
7297;BME280;40758;54.038;11.684;2024-02-23T02:45:17;98203.38;;;5.40;100.00
7297;BME280;40758;54.038;11.684;2024-02-23T02:47:46;98210.31;;;5.36;100.00
7297;BME280;40758;54.038;11.684;2024-02-23T02:50:14;98227.22;;;5.31;100.00
7297;BME280;40758;54.038;11.684;2024-02-23T02:52:43;98187.34;;;5.28;100.00
7297;BME280;40758;54.038;11.684;2024-02-23T02:55:10;98212.78;;;5.21;100.00
7297;BME280;40758;54.038;11.684;2024-02-23T02:57:37;98229.03;;;5.09;100.00
7297;BME280;40758;54.038;11.684;2024-02-23T03:00:05;98236.13;;;4.98;100.00
7297;BME280;40758;54.038;11.684;2024-02-23T03:02:32;98232.25;;;4.89;100.00
7297;BME280;40758;54.038;11.684;2024-02-23T03:04:59;98235.94;;;4.83;100.00
7297;BME280;40758;54.038;11.684;2024-02-23T03:07:26;98247.75;;;4.82;100.00
7297;BME280;40758;54.038;11.684;2024-02-23T03:09:52;98240.25;;;4.84;100.00
7297;BME280;40758;54.038;11.684;2024-02-23T03:12:21;98251.31;;;4.88;100.00
7297;BME280;40758;54.038;11.684;2024-02-23T03:14:48;98280.50;;;4.96;100.00
7297;BME280;40758;54.038;11.684;2024-02-23T03:17:15;98288.31;;;4.97;100.00
7297;BME280;40758;54.038;11.684;2024-02-23T03:19:41;98302.47;;;5.10;100.00
7297;BME280;40758;54.038;11.684;2024-02-23T03:22:08;98316.34;;;5.18;100.00
7297;BME280;40758;54.038;11.684;2024-02-23T03:24:35;98315.84;;;5.21;100.00
7297;BME280;40758;54.038;11.684;2024-02-23T03:27:02;98325.31;;;5.24;100.00
7297;BME280;40758;54.038;11.684;2024-02-23T03:29:29;98318.88;;;5.25;100.00
7297;BME280;40758;54.038;11.684;2024-02-23T03:31:57;98319.13;;;5.23;100.00
7297;BME280;40758;54.038;11.684;2024-02-23T03:34:24;98324.91;;;5.15;100.00
7297;BME280;40758;54.038;11.684;2024-02-23T03:36:51;98332.16;;;5.15;100.00
7297;BME280;40758;54.038;11.684;2024-02-23T03:39:18;98335.44;;;5.17;100.00
7297;BME280;40758;54.038;11.684;2024-02-23T03:41:45;98348.97;;;5.22;100.00
7297;BME280;40758;54.038;11.684;2024-02-23T03:44:12;98350.09;;;5.26;100.00
7297;BME280;40758;54.038;11.684;2024-02-23T03:46:38;98341.13;;;5.20;100.00
7297;BME280;40758;54.038;11.684;2024-02-23T03:49:06;98349.88;;;5.11;100.00
7297;BME280;40758;54.038;11.684;2024-02-23T03:51:33;98370.22;;;5.06;100.00
7297;BME280;40758;54.038;11.684;2024-02-23T03:54:01;98380.44;;;5.04;100.00
7297;BME280;40758;54.038;11.684;2024-02-23T03:56:28;98384.59;;;5.12;100.00
7297;BME280;40758;54.038;11.684;2024-02-23T03:58:55;98403.00;;;5.20;100.00
7297;BME280;40758;54.038;11.684;2024-02-23T04:01:21;98408.38;;;5.20;100.00
7297;BME280;40758;54.038;11.684;2024-02-23T04:03:48;98431.59;;;5.10;100.00
7297;BME280;40758;54.038;11.684;2024-02-23T04:06:15;98418.13;;;4.93;100.00
7297;BME280;40758;54.038;11.684;2024-02-23T04:08:42;98433.84;;;4.84;100.00
7297;BME280;40758;54.038;11.684;2024-02-23T04:11:12;98439.59;;;4.76;100.00
7297;BME280;40758;54.038;11.684;2024-02-23T04:13:39;98436.56;;;4.72;100.00
7297;BME280;40758;54.038;11.684;2024-02-23T04:16:06;98453.91;;;4.65;100.00
7297;BME280;40758;54.038;11.684;2024-02-23T04:18:32;98452.97;;;4.59;100.00
7297;BME280;40758;54.038;11.684;2024-02-23T04:20:59;98465.00;;;4.57;100.00
7297;BME280;40758;54.038;11.684;2024-02-23T04:23:27;98477.88;;;4.54;100.00
7297;BME280;40758;54.038;11.684;2024-02-23T04:25:53;98471.31;;;4.62;100.00
7297;BME280;40758;54.038;11.684;2024-02-23T04:28:20;98477.47;;;4.74;100.00
7297;BME280;40758;54.038;11.684;2024-02-23T04:30:48;98478.97;;;4.82;100.00
7297;BME280;40758;54.038;11.684;2024-02-23T04:33:15;98486.56;;;4.85;100.00
7297;BME280;40758;54.038;11.684;2024-02-23T04:35:42;98496.09;;;4.93;100.00
7297;BME280;40758;54.038;11.684;2024-02-23T04:38:08;98500.56;;;4.99;100.00
7297;BME280;40758;54.038;11.684;2024-02-23T04:40:35;98508.38;;;5.00;100.00
7297;BME280;40758;54.038;11.684;2024-02-23T04:43:02;98527.78;;;5.02;100.00
7297;BME280;40758;54.038;11.684;2024-02-23T04:45:29;98529.66;;;5.02;100.00
7297;BME280;40758;54.038;11.684;2024-02-23T04:47:55;98538.53;;;5.02;100.00
7297;BME280;40758;54.038;11.684;2024-02-23T04:50:22;98545.44;;;4.98;100.00
7297;BME280;40758;54.038;11.684;2024-02-23T04:52:49;98546.28;;;4.99;100.00
7297;BME280;40758;54.038;11.684;2024-02-23T04:55:16;98543.59;;;4.99;100.00
7297;BME280;40758;54.038;11.684;2024-02-23T04:57:43;98508.53;;;4.94;100.00
7297;BME280;40758;54.038;11.684;2024-02-23T05:00:11;98551.88;;;4.97;100.00
7297;BME280;40758;54.038;11.684;2024-02-23T05:02:39;98570.38;;;4.94;100.00
7297;BME280;40758;54.038;11.684;2024-02-23T05:05:06;98565.13;;;4.87;100.00
7297;BME280;40758;54.038;11.684;2024-02-23T05:07:34;98570.53;;;4.75;100.00
7297;BME280;40758;54.038;11.684;2024-02-23T05:10:02;98561.75;;;4.68;100.00
7297;BME280;40758;54.038;11.684;2024-02-23T05:12:30;98565.28;;;4.57;100.00
7297;BME280;40758;54.038;11.684;2024-02-23T05:14:57;98579.53;;;4.46;100.00
7297;BME280;40758;54.038;11.684;2024-02-23T05:17:25;98576.16;;;4.39;100.00
7297;BME280;40758;54.038;11.684;2024-02-23T05:19:52;98573.47;;;4.39;100.00
7297;BME280;40758;54.038;11.684;2024-02-23T05:22:20;98584.56;;;4.42;100.00
7297;BME280;40758;54.038;11.684;2024-02-23T05:24:47;98591.22;;;4.40;100.00
7297;BME280;40758;54.038;11.684;2024-02-23T05:27:14;98606.66;;;4.44;100.00
7297;BME280;40758;54.038;11.684;2024-02-23T05:29:42;98597.53;;;4.45;100.00
7297;BME280;40758;54.038;11.684;2024-02-23T05:32:09;98616.94;;;4.47;100.00
7297;BME280;40758;54.038;11.684;2024-02-23T05:34:37;98618.56;;;4.48;100.00
7297;BME280;40758;54.038;11.684;2024-02-23T05:37:04;98617.75;;;4.48;100.00
7297;BME280;40758;54.038;11.684;2024-02-23T05:39:31;98634.69;;;4.48;100.00
7297;BME280;40758;54.038;11.684;2024-02-23T05:41:58;98634.81;;;4.53;100.00
7297;BME280;40758;54.038;11.684;2024-02-23T05:44:26;98623.47;;;4.51;100.00
7297;BME280;40758;54.038;11.684;2024-02-23T05:46:53;98637.50;;;4.53;100.00
7297;BME280;40758;54.038;11.684;2024-02-23T05:49:19;98643.09;;;4.52;100.00
7297;BME280;40758;54.038;11.684;2024-02-23T05:51:47;98668.59;;;4.49;100.00
7297;BME280;40758;54.038;11.684;2024-02-23T05:54:15;98660.25;;;4.39;100.00
7297;BME280;40758;54.038;11.684;2024-02-23T05:56:44;98666.34;;;4.35;100.00
7297;BME280;40758;54.038;11.684;2024-02-23T05:59:14;98674.38;;;4.23;100.00
7297;BME280;40758;54.038;11.684;2024-02-23T06:01:45;98687.22;;;4.21;100.00
7297;BME280;40758;54.038;11.684;2024-02-23T06:04:11;98703.72;;;4.24;100.00
7297;BME280;40758;54.038;11.684;2024-02-23T06:06:42;98719.16;;;4.29;100.00
7297;BME280;40758;54.038;11.684;2024-02-23T06:09:13;98706.44;;;4.36;100.00
7297;BME280;40758;54.038;11.684;2024-02-23T06:11:40;98714.13;;;4.44;100.00
7297;BME280;40758;54.038;11.684;2024-02-23T06:14:09;98725.59;;;4.51;100.00
7297;BME280;40758;54.038;11.684;2024-02-23T06:16:39;98740.47;;;4.54;100.00
7297;BME280;40758;54.038;11.684;2024-02-23T06:19:08;98742.91;;;4.56;100.00
7297;BME280;40758;54.038;11.684;2024-02-23T06:21:38;98748.75;;;4.52;100.00
7297;BME280;40758;54.038;11.684;2024-02-23T06:24:06;98742.19;;;4.48;100.00
7297;BME280;40758;54.038;11.684;2024-02-23T06:26:35;98758.78;;;4.45;100.00
7297;BME280;40758;54.038;11.684;2024-02-23T06:29:02;98757.50;;;4.48;100.00
7297;BME280;40758;54.038;11.684;2024-02-23T06:31:30;98752.47;;;4.51;100.00
7297;BME280;40758;54.038;11.684;2024-02-23T06:33:56;98759.63;;;4.58;100.00
7297;BME280;40758;54.038;11.684;2024-02-23T06:36:23;98763.03;;;4.65;100.00
7297;BME280;40758;54.038;11.684;2024-02-23T06:38:50;98764.69;;;4.66;100.00
7297;BME280;40758;54.038;11.684;2024-02-23T06:41:17;98783.00;;;4.69;100.00
7297;BME280;40758;54.038;11.684;2024-02-23T06:43:44;98759.63;;;4.69;100.00
7297;BME280;40758;54.038;11.684;2024-02-23T06:46:11;98788.53;;;4.74;100.00
7297;BME280;40758;54.038;11.684;2024-02-23T06:48:38;98784.56;;;4.76;100.00
7297;BME280;40758;54.038;11.684;2024-02-23T06:51:05;98787.47;;;4.75;100.00
7297;BME280;40758;54.038;11.684;2024-02-23T06:53:36;98807.47;;;4.79;100.00
7297;BME280;40758;54.038;11.684;2024-02-23T06:56:03;98807.84;;;4.83;100.00
7297;BME280;40758;54.038;11.684;2024-02-23T06:58:30;98809.84;;;4.87;100.00
7297;BME280;40758;54.038;11.684;2024-02-23T07:00:57;98801.31;;;4.90;100.00
7297;BME280;40758;54.038;11.684;2024-02-23T07:03:24;98786.56;;;4.93;100.00
7297;BME280;40758;54.038;11.684;2024-02-23T07:05:51;98820.13;;;4.90;100.00
7297;BME280;40758;54.038;11.684;2024-02-23T07:08:19;98825.78;;;5.00;100.00
7297;BME280;40758;54.038;11.684;2024-02-23T07:10:46;98831.47;;;5.04;100.00
7297;BME280;40758;54.038;11.684;2024-02-23T07:13:12;98853.13;;;5.09;100.00
7297;BME280;40758;54.038;11.684;2024-02-23T07:15:39;98849.19;;;5.12;100.00
7297;BME280;40758;54.038;11.684;2024-02-23T07:18:06;98855.47;;;5.05;100.00
7297;BME280;40758;54.038;11.684;2024-02-23T07:20:36;98853.84;;;5.04;100.00
7297;BME280;40758;54.038;11.684;2024-02-23T07:23:04;98851.38;;;5.03;100.00
7297;BME280;40758;54.038;11.684;2024-02-23T07:25:31;98853.25;;;5.02;100.00
7297;BME280;40758;54.038;11.684;2024-02-23T07:27:59;98866.34;;;4.99;100.00
7297;BME280;40758;54.038;11.684;2024-02-23T07:30:28;98886.59;;;5.01;100.00
7297;BME280;40758;54.038;11.684;2024-02-23T07:32:55;98863.78;;;5.16;100.00
7297;BME280;40758;54.038;11.684;2024-02-23T07:35:23;98884.06;;;5.30;100.00
7297;BME280;40758;54.038;11.684;2024-02-23T07:38:14;98890.97;;;5.49;100.00
7297;BME280;40758;54.038;11.684;2024-02-23T07:44:37;98901.16;;;5.47;100.00
7297;BME280;40758;54.038;11.684;2024-02-23T07:47:21;98899.03;;;5.38;100.00
7297;BME280;40758;54.038;11.684;2024-02-23T07:50:04;98908.75;;;5.39;100.00
7297;BME280;40758;54.038;11.684;2024-02-23T07:52:48;98918.50;;;5.40;100.00
7297;BME280;40758;54.038;11.684;2024-02-23T07:55:15;98932.97;;;5.39;100.00
7297;BME280;40758;54.038;11.684;2024-02-23T07:57:43;98924.22;;;5.43;100.00
7297;BME280;40758;54.038;11.684;2024-02-23T08:00:10;98927.97;;;5.54;100.00
7297;BME280;40758;54.038;11.684;2024-02-23T08:02:38;98922.13;;;5.57;100.00
7297;BME280;40758;54.038;11.684;2024-02-23T08:05:06;98934.78;;;5.80;100.00
7297;BME280;40758;54.038;11.684;2024-02-23T08:07:36;98923.09;;;6.09;100.00
7297;BME280;40758;54.038;11.684;2024-02-23T08:10:04;98929.56;;;6.37;100.00
7297;BME280;40758;54.038;11.684;2024-02-23T08:12:34;98935.25;;;6.64;100.00
7297;BME280;40758;54.038;11.684;2024-02-23T08:15:07;98920.81;;;6.70;100.00
7297;BME280;40758;54.038;11.684;2024-02-23T08:17:38;98922.53;;;6.48;100.00
7297;BME280;40758;54.038;11.684;2024-02-23T08:20:05;98917.69;;;6.61;100.00
7297;BME280;40758;54.038;11.684;2024-02-23T08:22:32;98935.00;;;6.65;100.00
7297;BME280;40758;54.038;11.684;2024-02-23T08:25:02;98941.25;;;6.54;100.00
7297;BME280;40758;54.038;11.684;2024-02-23T08:27:29;98934.38;;;6.47;100.00
7297;BME280;40758;54.038;11.684;2024-02-23T08:30:02;98935.34;;;6.29;100.00
7297;BME280;40758;54.038;11.684;2024-02-23T08:32:28;98956.00;;;6.11;100.00
7297;BME280;40758;54.038;11.684;2024-02-23T08:34:56;98964.22;;;5.93;100.00
7297;BME280;40758;54.038;11.684;2024-02-23T08:37:26;98969.91;;;5.85;100.00
7297;BME280;40758;54.038;11.684;2024-02-23T08:39:54;98985.84;;;5.86;100.00
7297;BME280;40758;54.038;11.684;2024-02-23T08:42:21;98980.66;;;5.85;100.00
7297;BME280;40758;54.038;11.684;2024-02-23T08:44:48;98977.97;;;5.85;100.00
7297;BME280;40758;54.038;11.684;2024-02-23T08:47:15;98995.72;;;5.93;100.00
7297;BME280;40758;54.038;11.684;2024-02-23T08:49:44;98986.19;;;5.90;100.00
7297;BME280;40758;54.038;11.684;2024-02-23T08:52:13;98995.84;;;6.09;100.00
7297;BME280;40758;54.038;11.684;2024-02-23T08:54:40;98978.47;;;6.29;100.00
7297;BME280;40758;54.038;11.684;2024-02-23T08:57:08;99000.47;;;6.49;100.00
7297;BME280;40758;54.038;11.684;2024-02-23T08:59:37;98991.06;;;6.63;100.00
7297;BME280;40758;54.038;11.684;2024-02-23T09:02:07;99003.16;;;6.73;100.00
7297;BME280;40758;54.038;11.684;2024-02-23T09:04:34;99007.00;;;6.77;100.00
7297;BME280;40758;54.038;11.684;2024-02-23T09:07:01;99012.56;;;6.99;100.00
7297;BME280;40758;54.038;11.684;2024-02-23T09:09:32;99022.69;;;7.20;100.00
7297;BME280;40758;54.038;11.684;2024-02-23T09:11:58;99031.22;;;7.29;100.00
7297;BME280;40758;54.038;11.684;2024-02-23T09:14:25;99031.22;;;7.29;100.00
7297;BME280;40758;54.038;11.684;2024-02-23T09:16:52;99023.88;;;7.41;100.00
7297;BME280;40758;54.038;11.684;2024-02-23T09:19:19;99029.38;;;7.46;100.00
7297;BME280;40758;54.038;11.684;2024-02-23T09:21:47;99039.97;;;7.64;100.00
7297;BME280;40758;54.038;11.684;2024-02-23T09:24:13;99033.59;;;7.87;100.00
7297;BME280;40758;54.038;11.684;2024-02-23T09:26:41;99036.06;;;8.39;100.00
7297;BME280;40758;54.038;11.684;2024-02-23T09:29:08;99038.00;;;8.44;100.00
7297;BME280;40758;54.038;11.684;2024-02-23T09:31:35;99037.06;;;8.94;100.00
7297;BME280;40758;54.038;11.684;2024-02-23T09:34:02;99044.59;;;9.36;100.00
7297;BME280;40758;54.038;11.684;2024-02-23T09:36:31;99030.78;;;9.96;100.00
7297;BME280;40758;54.038;11.684;2024-02-23T09:39:00;99041.97;;;9.73;100.00
7297;BME280;40758;54.038;11.684;2024-02-23T09:41:28;99060.66;;;9.69;100.00
7297;BME280;40758;54.038;11.684;2024-02-23T09:43:58;99051.91;;;9.13;100.00
7297;BME280;40758;54.038;11.684;2024-02-23T09:46:27;99051.19;;;8.57;100.00
7297;BME280;40758;54.038;11.684;2024-02-23T09:48:56;99058.81;;;8.26;100.00
7297;BME280;40758;54.038;11.684;2024-02-23T09:51:23;99064.81;;;8.84;100.00
7297;BME280;40758;54.038;11.684;2024-02-23T09:53:52;99071.13;;;9.88;100.00
7297;BME280;40758;54.038;11.684;2024-02-23T09:56:26;99066.75;;;10.51;100.00
7297;BME280;40758;54.038;11.684;2024-02-23T09:58:55;99077.47;;;10.30;100.00
7297;BME280;40758;54.038;11.684;2024-02-23T10:01:27;99074.44;;;9.95;100.00
7297;BME280;40758;54.038;11.684;2024-02-23T10:03:57;99087.81;;;9.25;100.00
7297;BME280;40758;54.038;11.684;2024-02-23T10:06:27;99085.19;;;8.70;100.00
7297;BME280;40758;54.038;11.684;2024-02-23T10:08:55;99087.03;;;8.64;100.00
7297;BME280;40758;54.038;11.684;2024-02-23T10:11:23;99108.56;;;9.64;100.00
7297;BME280;40758;54.038;11.684;2024-02-23T10:13:51;99119.09;;;9.38;100.00
7297;BME280;40758;54.038;11.684;2024-02-23T10:16:20;99115.06;;;9.19;100.00
7297;BME280;40758;54.038;11.684;2024-02-23T10:18:47;99128.53;;;8.75;100.00
7297;BME280;40758;54.038;11.684;2024-02-23T10:21:15;99131.88;;;8.43;100.00
7297;BME280;40758;54.038;11.684;2024-02-23T10:23:45;99131.66;;;8.33;100.00
7297;BME280;40758;54.038;11.684;2024-02-23T10:26:17;99140.06;;;8.65;100.00
7297;BME280;40758;54.038;11.684;2024-02-23T10:28:46;99139.16;;;8.60;100.00
7297;BME280;40758;54.038;11.684;2024-02-23T10:31:14;99159.91;;;8.54;100.00
7297;BME280;40758;54.038;11.684;2024-02-23T10:33:45;99145.50;;;9.26;100.00
7297;BME280;40758;54.038;11.684;2024-02-23T10:36:15;99150.22;;;9.84;100.00
7297;BME280;40758;54.038;11.684;2024-02-23T10:38:44;99158.84;;;9.76;100.00
7297;BME280;40758;54.038;11.684;2024-02-23T10:41:13;99151.25;;;9.78;100.00
7297;BME280;40758;54.038;11.684;2024-02-23T10:43:46;99160.59;;;9.44;100.00
7297;BME280;40758;54.038;11.684;2024-02-23T10:46:15;99144.97;;;9.73;100.00
7297;BME280;40758;54.038;11.684;2024-02-23T10:48:44;99177.78;;;9.98;100.00
7297;BME280;40758;54.038;11.684;2024-02-23T10:51:13;99178.19;;;10.39;100.00
7297;BME280;40758;54.038;11.684;2024-02-23T10:53:48;99187.88;;;10.99;100.00
7297;BME280;40758;54.038;11.684;2024-02-23T10:56:16;99178.88;;;10.93;100.00
7297;BME280;40758;54.038;11.684;2024-02-23T10:58:44;99191.97;;;10.32;100.00
7297;BME280;40758;54.038;11.684;2024-02-23T11:01:11;99192.16;;;9.99;100.00
7297;BME280;40758;54.038;11.684;2024-02-23T11:03:42;99195.22;;;10.07;100.00
7297;BME280;40758;54.038;11.684;2024-02-23T11:06:12;99199.56;;;9.59;100.00
7297;BME280;40758;54.038;11.684;2024-02-23T11:08:41;99204.78;;;9.88;100.00
7297;BME280;40758;54.038;11.684;2024-02-23T11:11:10;99193.81;;;9.78;100.00
7297;BME280;40758;54.038;11.684;2024-02-23T11:13:39;99210.59;;;9.75;100.00
7297;BME280;40758;54.038;11.684;2024-02-23T11:16:08;99193.44;;;10.18;100.00
7297;BME280;40758;54.038;11.684;2024-02-23T11:18:41;99196.34;;;10.33;100.00
7297;BME280;40758;54.038;11.684;2024-02-23T11:21:12;99187.03;;;11.41;100.00
7297;BME280;40758;54.038;11.684;2024-02-23T11:23:49;99193.31;;;11.46;100.00
7297;BME280;40758;54.038;11.684;2024-02-23T11:26:19;99191.44;;;12.30;100.00
7297;BME280;40758;54.038;11.684;2024-02-23T11:28:50;99187.06;;;12.19;100.00
7297;BME280;40758;54.038;11.684;2024-02-23T11:31:28;99181.91;;;12.68;100.00
7297;BME280;40758;54.038;11.684;2024-02-23T11:33:56;99170.66;;;13.16;100.00
7297;BME280;40758;54.038;11.684;2024-02-23T11:36:35;99167.47;;;12.83;100.00
7297;BME280;40758;54.038;11.684;2024-02-23T11:39:05;99190.53;;;11.99;100.00
7297;BME280;40758;54.038;11.684;2024-02-23T11:41:35;99181.03;;;12.17;100.00
7297;BME280;40758;54.038;11.684;2024-02-23T11:44:06;99202.63;;;12.64;100.00
7297;BME280;40758;54.038;11.684;2024-02-23T11:46:33;99181.06;;;13.24;100.00
7297;BME280;40758;54.038;11.684;2024-02-23T11:49:00;99194.59;;;13.49;100.00
7297;BME280;40758;54.038;11.684;2024-02-23T11:51:29;99182.09;;;13.33;100.00
7297;BME280;40758;54.038;11.684;2024-02-23T11:53:57;99190.38;;;13.82;100.00
7297;BME280;40758;54.038;11.684;2024-02-23T11:56:27;99192.13;;;14.13;100.00
7297;BME280;40758;54.038;11.684;2024-02-23T11:58:56;99192.50;;;14.40;100.00
7297;BME280;40758;54.038;11.684;2024-02-23T12:01:23;99182.22;;;13.77;100.00
7297;BME280;40758;54.038;11.684;2024-02-23T12:03:49;99187.56;;;13.18;100.00
7297;BME280;40758;54.038;11.684;2024-02-23T12:06:16;99190.59;;;12.35;100.00
7297;BME280;40758;54.038;11.684;2024-02-23T12:08:45;99177.22;;;11.97;100.00
7297;BME280;40758;54.038;11.684;2024-02-23T12:11:13;99189.16;;;11.91;100.00
7297;BME280;40758;54.038;11.684;2024-02-23T12:13:42;99180.84;;;11.56;100.00
7297;BME280;40758;54.038;11.684;2024-02-23T12:16:11;99181.63;;;12.34;100.00
7297;BME280;40758;54.038;11.684;2024-02-23T12:18:38;99186.28;;;12.59;100.00
7297;BME280;40758;54.038;11.684;2024-02-23T12:21:06;99194.94;;;13.07;100.00
7297;BME280;40758;54.038;11.684;2024-02-23T12:23:41;99201.22;;;12.31;100.00
7297;BME280;40758;54.038;11.684;2024-02-23T12:26:14;99194.50;;;11.66;100.00
7297;BME280;40758;54.038;11.684;2024-02-23T12:28:42;99212.44;;;10.45;100.00
7297;BME280;40758;54.038;11.684;2024-02-23T12:31:09;99201.59;;;9.69;100.00
7297;BME280;40758;54.038;11.684;2024-02-23T12:33:39;99211.81;;;9.23;100.00
7297;BME280;40758;54.038;11.684;2024-02-23T12:36:08;99215.94;;;9.92;100.00
7297;BME280;40758;54.038;11.684;2024-02-23T12:38:36;99213.44;;;11.03;100.00
7297;BME280;40758;54.038;11.684;2024-02-23T12:41:04;99199.03;;;12.28;100.00
7297;BME280;40758;54.038;11.684;2024-02-23T12:43:32;99206.69;;;12.72;100.00
7297;BME280;40758;54.038;11.684;2024-02-23T12:46:01;99193.03;;;13.02;100.00
7297;BME280;40758;54.038;11.684;2024-02-23T12:48:30;99192.44;;;13.46;100.00
7297;BME280;40758;54.038;11.684;2024-02-23T12:51:02;99202.69;;;13.75;100.00
7297;BME280;40758;54.038;11.684;2024-02-23T12:53:31;99212.06;;;13.48;100.00
7297;BME280;40758;54.038;11.684;2024-02-23T12:56:04;99202.56;;;12.34;100.00
7297;BME280;40758;54.038;11.684;2024-02-23T12:58:32;99205.03;;;12.50;100.00
7297;BME280;40758;54.038;11.684;2024-02-23T13:00:59;99208.84;;;13.05;100.00
7297;BME280;40758;54.038;11.684;2024-02-23T13:03:26;99220.56;;;12.91;100.00
7297;BME280;40758;54.038;11.684;2024-02-23T13:05:54;99237.88;;;12.03;100.00